Patton, Pennsylvania
Current Conditions -  °F | °C
As of 2:55 PM on Saturday 25 Oct 2014 (Local Time) from KIDI Reporting Station
Overcast Overcast  
Wind Chill: 63°   Ceiling: 4400
Heat Index: 63°   Visibility: 10mi
Dew Point: 50°   Wind: 13mph
Humidity: 63%   Direction: 260°W
Pressure: 29.83"   Gusts: 20mph
Location:  40.63°N, 78.65°W
Report Text: KIDI 251855Z AUTO 26011G17KT 10SM SCT036 BKN044 OVC055 17/10 A2983 RMK A01
Loading
Personal Weather Stations






























Interactive Weather Map
Tropical Storm Tracking
New forecast layout! Learn more

10-Day Weather Forecast

Advertisements
Track Severe Weather on mobile